createdAt,value
2019-03-26T00:00:10.234Z,0.46
2019-03-26T00:15:10.270Z,0.43
2019-03-26T00:30:10.330Z,0.46
2019-03-26T00:45:10.349Z,0.51
2019-03-26T01:00:10.387Z,0.43
2019-03-26T01:15:10.467Z,0.54
2019-03-26T01:30:10.461Z,0.48
2019-03-26T01:45:10.501Z,0.6
2019-03-26T02:00:10.562Z,0.53
2019-03-26T02:15:10.628Z,0.51
2019-03-26T02:30:10.638Z,0.4
2019-03-26T02:45:10.683Z,0.38
2019-03-26T03:00:10.757Z,0.36
2019-03-26T03:15:10.735Z,0.54
2019-03-26T03:30:10.809Z,0.48
2019-03-26T03:45:10.808Z,0.4
2019-03-26T04:00:10.918Z,0.54
2019-03-26T04:15:11.212Z,0.44
2019-03-26T04:30:11.213Z,0.46
2019-03-26T04:45:11.392Z,0.49
2019-03-26T05:00:11.583Z,0.51
2019-03-26T05:15:03.527Z,0.54
2019-03-26T05:30:03.320Z,0.52
2019-03-26T05:45:03.599Z,0.5
2019-03-26T06:00:03.685Z,0.74
2019-03-26T06:15:05.014Z,1.12
2019-03-26T06:30:04.728Z,2.23
2019-03-26T06:45:04.868Z,2.44
2019-03-26T07:00:07.123Z,2.31
2019-03-26T07:15:04.945Z,1.69
2019-03-26T07:30:05.112Z,0.9
2019-03-26T07:45:06.275Z,0.7
2019-03-26T08:00:08.292Z,0.63
2019-03-26T08:15:08.624Z,0.69
2019-03-26T08:30:11.505Z,0.63
2019-03-26T08:45:11.391Z,0.53
2019-03-26T09:00:12.209Z,0.52
2019-03-26T09:15:14.346Z,0.58
2019-03-26T09:30:02.294Z,0.58
2019-03-26T09:45:12.344Z,0.48
2019-03-26T10:00:12.348Z,0.56
2019-03-26T10:15:12.442Z,0.66
2019-03-26T10:30:13.220Z,0.5
2019-03-26T10:45:12.658Z,0.44
2019-03-26T11:00:03.266Z,0.79
2019-03-26T11:15:03.802Z,0.91
2019-03-26T11:30:03.851Z,0.74
2019-03-26T11:45:03.867Z,0.54
2019-03-26T12:00:06.829Z,0.59
2019-03-26T12:15:07.854Z,0.53
2019-03-26T12:30:02.276Z,0.6
2019-03-26T12:45:07.048Z,0.53
2019-03-26T13:00:12.595Z,0.62
2019-03-26T13:15:03.709Z,0.63
2019-03-26T13:30:05.721Z,0.62
2019-03-26T13:45:05.798Z,0.55
2019-03-26T14:00:04.689Z,0.6
2019-03-26T14:15:04.722Z,0.49
2019-03-26T14:30:04.699Z,0.45
2019-03-26T14:45:04.939Z,0.6
2019-03-26T15:00:04.951Z,0.62
2019-03-26T15:15:05.093Z,0.66
2019-03-26T15:30:05.165Z,0.76
2019-03-26T15:45:05.133Z,0.66
2019-03-26T16:00:07.656Z,0.55
2019-03-26T16:15:08.273Z,0.54
2019-03-26T16:30:08.747Z,0.54
2019-03-26T16:45:09.062Z,0.57
2019-03-26T17:00:09.840Z,0.5
2019-03-26T17:15:10.390Z,0.66
2019-03-26T17:30:12.007Z,0.77
2019-03-26T17:45:12.259Z,0.81
2019-03-26T18:00:12.310Z,0.65
2019-03-26T18:15:12.472Z,0.7
2019-03-26T18:30:05.897Z,0.46
2019-03-26T18:45:06.857Z,0.44
2019-03-26T19:00:07.435Z,0.41
2019-03-26T19:15:07.454Z,0.54
2019-03-26T19:30:09.850Z,0.54
2019-03-26T19:45:09.930Z,0.42
2019-03-26T20:00:09.951Z,0.52
2019-03-26T20:15:10.260Z,0.43
2019-03-26T20:30:03.666Z,0.42
2019-03-26T20:45:03.667Z,0.49
2019-03-26T21:00:03.684Z,0.47
2019-03-26T21:15:05.907Z,0.43
2019-03-26T21:30:11.302Z,0.35
2019-03-26T21:45:06.471Z,0.52
2019-03-26T22:00:06.538Z,0.51
2019-03-26T22:15:07.158Z,0.51
2019-03-26T22:30:07.688Z,0.51
2019-03-26T22:45:07.750Z,0.45
2019-03-26T23:00:08.514Z,0.46
2019-03-26T23:15:09.259Z,0.44
2019-03-26T23:30:09.327Z,0.52
2019-03-26T23:45:09.306Z,0.47
